sensor_id;sensor_type;location;lat;lon;timestamp;P1;durP1;ratioP1;P2;durP2;ratioP2
17917;SDS011;9084;50.956;3.106;2024-01-30T00:00:14;5.45;;;4.80;;
17917;SDS011;9084;50.956;3.106;2024-01-30T00:02:39;6.43;;;5.03;;
17917;SDS011;9084;50.956;3.106;2024-01-30T00:05:05;5.28;;;4.75;;
17917;SDS011;9084;50.956;3.106;2024-01-30T00:07:33;5.13;;;4.25;;
17917;SDS011;9084;50.956;3.106;2024-01-30T00:09:59;5.68;;;4.35;;
17917;SDS011;9084;50.956;3.106;2024-01-30T00:12:27;5.75;;;4.18;;
17917;SDS011;9084;50.956;3.106;2024-01-30T00:14:53;4.97;;;4.47;;
17917;SDS011;9084;50.956;3.106;2024-01-30T00:17:19;5.57;;;4.90;;
17917;SDS011;9084;50.956;3.106;2024-01-30T00:19:48;5.55;;;4.70;;
17917;SDS011;9084;50.956;3.106;2024-01-30T00:22:13;5.35;;;4.78;;
17917;SDS011;9084;50.956;3.106;2024-01-30T00:24:41;9.05;;;4.22;;
17917;SDS011;9084;50.956;3.106;2024-01-30T00:27:07;5.30;;;4.80;;
17917;SDS011;9084;50.956;3.106;2024-01-30T00:29:33;5.45;;;4.95;;
17917;SDS011;9084;50.956;3.106;2024-01-30T00:32:01;5.78;;;4.95;;
17917;SDS011;9084;50.956;3.106;2024-01-30T00:34:27;5.97;;;4.60;;
17917;SDS011;9084;50.956;3.106;2024-01-30T00:36:55;5.70;;;5.13;;
17917;SDS011;9084;50.956;3.106;2024-01-30T00:39:21;5.30;;;4.88;;
17917;SDS011;9084;50.956;3.106;2024-01-30T00:41:48;5.22;;;4.80;;
17917;SDS011;9084;50.956;3.106;2024-01-30T00:44:14;5.65;;;5.15;;
17917;SDS011;9084;50.956;3.106;2024-01-30T00:46:42;5.75;;;5.25;;
17917;SDS011;9084;50.956;3.106;2024-01-30T00:49:10;5.55;;;4.63;;
17917;SDS011;9084;50.956;3.106;2024-01-30T00:51:36;6.57;;;5.28;;
17917;SDS011;9084;50.956;3.106;2024-01-30T00:54:01;5.35;;;4.85;;
17917;SDS011;9084;50.956;3.106;2024-01-30T00:56:31;7.03;;;5.43;;
17917;SDS011;9084;50.956;3.106;2024-01-30T00:58:59;5.93;;;4.72;;
17917;SDS011;9084;50.956;3.106;2024-01-30T01:01:25;4.93;;;4.53;;
17917;SDS011;9084;50.956;3.106;2024-01-30T01:03:51;6.22;;;5.70;;
17917;SDS011;9084;50.956;3.106;2024-01-30T01:06:16;6.03;;;5.43;;
17917;SDS011;9084;50.956;3.106;2024-01-30T01:08:47;5.10;;;4.70;;
17917;SDS011;9084;50.956;3.106;2024-01-30T01:11:15;5.32;;;4.82;;
17917;SDS011;9084;50.956;3.106;2024-01-30T01:13:40;5.63;;;5.13;;
17917;SDS011;9084;50.956;3.106;2024-01-30T01:16:06;4.97;;;4.50;;
17917;SDS011;9084;50.956;3.106;2024-01-30T01:18:32;5.47;;;4.97;;
17917;SDS011;9084;50.956;3.106;2024-01-30T01:21:00;5.00;;;4.50;;
17917;SDS011;9084;50.956;3.106;2024-01-30T01:23:26;5.82;;;5.32;;
17917;SDS011;9084;50.956;3.106;2024-01-30T01:25:51;5.50;;;5.00;;
17917;SDS011;9084;50.956;3.106;2024-01-30T01:28:17;6.03;;;5.47;;
17917;SDS011;9084;50.956;3.106;2024-01-30T01:30:43;5.10;;;4.60;;
17917;SDS011;9084;50.956;3.106;2024-01-30T01:33:11;5.38;;;4.97;;
17917;SDS011;9084;50.956;3.106;2024-01-30T01:35:41;5.93;;;4.88;;
17917;SDS011;9084;50.956;3.106;2024-01-30T01:38:07;5.55;;;5.05;;
17917;SDS011;9084;50.956;3.106;2024-01-30T01:40:32;5.35;;;4.85;;
17917;SDS011;9084;50.956;3.106;2024-01-30T01:42:58;5.50;;;5.00;;
17917;SDS011;9084;50.956;3.106;2024-01-30T01:45:24;5.80;;;5.30;;
17917;SDS011;9084;50.956;3.106;2024-01-30T01:47:52;6.10;;;5.53;;
17917;SDS011;9084;50.956;3.106;2024-01-30T01:50:18;5.70;;;5.18;;
17917;SDS011;9084;50.956;3.106;2024-01-30T01:52:50;5.75;;;5.25;;
17917;SDS011;9084;50.956;3.106;2024-01-30T01:55:18;5.53;;;5.03;;
17917;SDS011;9084;50.956;3.106;2024-01-30T01:57:47;7.07;;;5.13;;
17917;SDS011;9084;50.956;3.106;2024-01-30T02:00:13;5.70;;;5.05;;
17917;SDS011;9084;50.956;3.106;2024-01-30T02:02:40;6.68;;;5.35;;
17917;SDS011;9084;50.956;3.106;2024-01-30T02:05:10;5.57;;;5.07;;
17917;SDS011;9084;50.956;3.106;2024-01-30T02:07:38;5.72;;;5.22;;
17917;SDS011;9084;50.956;3.106;2024-01-30T02:10:08;6.70;;;5.68;;
17917;SDS011;9084;50.956;3.106;2024-01-30T02:12:37;5.22;;;4.80;;
17917;SDS011;9084;50.956;3.106;2024-01-30T02:15:03;6.63;;;4.90;;
17917;SDS011;9084;50.956;3.106;2024-01-30T02:17:32;5.93;;;5.40;;
17917;SDS011;9084;50.956;3.106;2024-01-30T02:20:05;8.50;;;4.78;;
17917;SDS011;9084;50.956;3.106;2024-01-30T02:22:36;6.07;;;4.88;;
17917;SDS011;9084;50.956;3.106;2024-01-30T02:25:03;7.47;;;5.70;;
17917;SDS011;9084;50.956;3.106;2024-01-30T02:27:31;7.38;;;5.53;;
17917;SDS011;9084;50.956;3.106;2024-01-30T02:29:57;5.78;;;5.25;;
17917;SDS011;9084;50.956;3.106;2024-01-30T02:32:24;6.00;;;5.30;;
17917;SDS011;9084;50.956;3.106;2024-01-30T02:34:49;6.60;;;5.28;;
17917;SDS011;9084;50.956;3.106;2024-01-30T02:37:16;6.72;;;5.30;;
17917;SDS011;9084;50.956;3.106;2024-01-30T02:39:44;6.15;;;5.55;;
17917;SDS011;9084;50.956;3.106;2024-01-30T02:42:10;5.57;;;5.07;;
17917;SDS011;9084;50.956;3.106;2024-01-30T02:44:36;5.45;;;4.95;;
17917;SDS011;9084;50.956;3.106;2024-01-30T02:47:02;8.23;;;5.25;;
17917;SDS011;9084;50.956;3.106;2024-01-30T02:49:29;5.55;;;5.05;;
17917;SDS011;9084;50.956;3.106;2024-01-30T02:51:55;6.22;;;5.63;;
17917;SDS011;9084;50.956;3.106;2024-01-30T02:54:25;8.15;;;5.80;;
17917;SDS011;9084;50.956;3.106;2024-01-30T02:56:51;5.72;;;5.07;;
17917;SDS011;9084;50.956;3.106;2024-01-30T02:59:16;5.88;;;5.35;;
17917;SDS011;9084;50.956;3.106;2024-01-30T03:01:44;5.88;;;5.38;;
17917;SDS011;9084;50.956;3.106;2024-01-30T03:04:12;5.47;;;4.97;;
17917;SDS011;9084;50.956;3.106;2024-01-30T03:06:38;7.35;;;5.18;;
17917;SDS011;9084;50.956;3.106;2024-01-30T03:09:04;6.07;;;5.57;;
17917;SDS011;9084;50.956;3.106;2024-01-30T03:11:30;5.13;;;4.72;;
17917;SDS011;9084;50.956;3.106;2024-01-30T03:13:56;5.90;;;5.30;;
17917;SDS011;9084;50.956;3.106;2024-01-30T03:16:21;5.15;;;4.60;;
17917;SDS011;9084;50.956;3.106;2024-01-30T03:18:47;6.78;;;5.30;;
17917;SDS011;9084;50.956;3.106;2024-01-30T03:21:13;5.57;;;5.07;;
17917;SDS011;9084;50.956;3.106;2024-01-30T03:23:39;6.13;;;4.60;;
17917;SDS011;9084;50.956;3.106;2024-01-30T03:26:09;5.00;;;4.60;;
17917;SDS011;9084;50.956;3.106;2024-01-30T03:28:37;5.35;;;4.88;;
17917;SDS011;9084;50.956;3.106;2024-01-30T03:31:05;10.45;;;5.15;;
17917;SDS011;9084;50.956;3.106;2024-01-30T03:33:36;5.65;;;5.15;;
17917;SDS011;9084;50.956;3.106;2024-01-30T03:36:04;5.65;;;5.00;;
17917;SDS011;9084;50.956;3.106;2024-01-30T03:38:30;5.38;;;4.60;;
17917;SDS011;9084;50.956;3.106;2024-01-30T03:40:57;5.40;;;4.82;;
17917;SDS011;9084;50.956;3.106;2024-01-30T03:43:24;4.97;;;4.57;;
17917;SDS011;9084;50.956;3.106;2024-01-30T03:45:49;9.60;;;5.20;;
17917;SDS011;9084;50.956;3.106;2024-01-30T03:48:15;5.60;;;5.07;;
17917;SDS011;9084;50.956;3.106;2024-01-30T03:50:41;5.75;;;5.25;;
17917;SDS011;9084;50.956;3.106;2024-01-30T03:53:06;7.35;;;5.47;;
17917;SDS011;9084;50.956;3.106;2024-01-30T03:55:36;6.05;;;4.35;;
17917;SDS011;9084;50.956;3.106;2024-01-30T03:58:02;6.25;;;5.10;;
17917;SDS011;9084;50.956;3.106;2024-01-30T04:00:30;5.90;;;5.43;;
17917;SDS011;9084;50.956;3.106;2024-01-30T04:02:56;5.68;;;5.18;;
17917;SDS011;9084;50.956;3.106;2024-01-30T04:05:24;4.93;;;4.50;;
17917;SDS011;9084;50.956;3.106;2024-01-30T04:07:52;5.38;;;4.88;;
17917;SDS011;9084;50.956;3.106;2024-01-30T04:10:17;5.93;;;4.75;;
17917;SDS011;9084;50.956;3.106;2024-01-30T04:12:45;7.03;;;4.95;;
17917;SDS011;9084;50.956;3.106;2024-01-30T04:15:11;8.30;;;5.88;;
17917;SDS011;9084;50.956;3.106;2024-01-30T04:17:38;5.03;;;4.63;;
17917;SDS011;9084;50.956;3.106;2024-01-30T04:20:13;5.72;;;5.13;;
17917;SDS011;9084;50.956;3.106;2024-01-30T04:22:40;6.05;;;5.30;;
17917;SDS011;9084;50.956;3.106;2024-01-30T04:25:07;6.40;;;5.32;;
17917;SDS011;9084;50.956;3.106;2024-01-30T04:27:35;5.65;;;5.15;;
17917;SDS011;9084;50.956;3.106;2024-01-30T04:30:00;5.15;;;4.35;;
17917;SDS011;9084;50.956;3.106;2024-01-30T04:32:26;5.32;;;4.82;;
17917;SDS011;9084;50.956;3.106;2024-01-30T04:34:54;6.10;;;5.45;;
17917;SDS011;9084;50.956;3.106;2024-01-30T04:37:20;5.03;;;4.50;;
17917;SDS011;9084;50.956;3.106;2024-01-30T04:39:45;6.18;;;4.82;;
17917;SDS011;9084;50.956;3.106;2024-01-30T04:42:11;6.95;;;5.00;;
17917;SDS011;9084;50.956;3.106;2024-01-30T04:44:39;5.70;;;5.15;;
17917;SDS011;9084;50.956;3.106;2024-01-30T04:47:07;5.40;;;4.57;;
17917;SDS011;9084;50.956;3.106;2024-01-30T04:49:34;5.57;;;4.43;;
17917;SDS011;9084;50.956;3.106;2024-01-30T04:52:00;5.47;;;4.97;;
17917;SDS011;9084;50.956;3.106;2024-01-30T04:54:28;5.10;;;4.70;;
17917;SDS011;9084;50.956;3.106;2024-01-30T04:56:56;4.95;;;4.40;;
17917;SDS011;9084;50.956;3.106;2024-01-30T04:59:21;5.43;;;4.68;;
17917;SDS011;9084;50.956;3.106;2024-01-30T05:01:47;5.45;;;4.90;;
17917;SDS011;9084;50.956;3.106;2024-01-30T05:04:13;7.15;;;4.95;;
17917;SDS011;9084;50.956;3.106;2024-01-30T05:06:41;6.22;;;4.60;;
17917;SDS011;9084;50.956;3.106;2024-01-30T05:09:07;5.35;;;4.85;;
17917;SDS011;9084;50.956;3.106;2024-01-30T05:11:39;5.63;;;5.10;;
17917;SDS011;9084;50.956;3.106;2024-01-30T05:14:06;6.90;;;5.15;;
17917;SDS011;9084;50.956;3.106;2024-01-30T05:16:33;4.90;;;4.43;;
17917;SDS011;9084;50.956;3.106;2024-01-30T05:19:03;7.72;;;4.93;;
17917;SDS011;9084;50.956;3.106;2024-01-30T05:21:29;5.35;;;4.50;;
17917;SDS011;9084;50.956;3.106;2024-01-30T05:23:56;5.28;;;4.57;;
17917;SDS011;9084;50.956;3.106;2024-01-30T05:26:22;5.15;;;4.75;;
17917;SDS011;9084;50.956;3.106;2024-01-30T05:28:52;5.05;;;4.57;;
17917;SDS011;9084;50.956;3.106;2024-01-30T05:31:18;5.72;;;4.75;;
17917;SDS011;9084;50.956;3.106;2024-01-30T05:33:44;5.20;;;4.70;;
17917;SDS011;9084;50.956;3.106;2024-01-30T05:36:11;4.70;;;4.28;;
17917;SDS011;9084;50.956;3.106;2024-01-30T05:38:38;5.90;;;5.40;;
17917;SDS011;9084;50.956;3.106;2024-01-30T05:41:06;5.05;;;4.60;;
17917;SDS011;9084;50.956;3.106;2024-01-30T05:43:33;5.07;;;4.63;;
17917;SDS011;9084;50.956;3.106;2024-01-30T05:45:59;8.07;;;4.70;;
17917;SDS011;9084;50.956;3.106;2024-01-30T05:48:25;6.03;;;5.53;;
17917;SDS011;9084;50.956;3.106;2024-01-30T05:50:50;5.80;;;5.22;;
17917;SDS011;9084;50.956;3.106;2024-01-30T05:53:16;7.53;;;6.53;;
17917;SDS011;9084;50.956;3.106;2024-01-30T05:55:41;7.38;;;6.18;;
17917;SDS011;9084;50.956;3.106;2024-01-30T05:58:09;6.55;;;5.90;;
17917;SDS011;9084;50.956;3.106;2024-01-30T06:00:35;8.55;;;5.95;;
17917;SDS011;9084;50.956;3.106;2024-01-30T06:03:00;5.65;;;5.00;;
17917;SDS011;9084;50.956;3.106;2024-01-30T06:05:26;5.65;;;5.15;;
17917;SDS011;9084;50.956;3.106;2024-01-30T06:07:52;6.40;;;5.88;;
17917;SDS011;9084;50.956;3.106;2024-01-30T06:10:20;5.47;;;4.88;;
17917;SDS011;9084;50.956;3.106;2024-01-30T06:12:48;6.68;;;5.40;;
17917;SDS011;9084;50.956;3.106;2024-01-30T06:15:16;5.75;;;5.20;;
17917;SDS011;9084;50.956;3.106;2024-01-30T06:17:41;5.82;;;5.22;;
17917;SDS011;9084;50.956;3.106;2024-01-30T06:20:10;5.57;;;5.07;;
17917;SDS011;9084;50.956;3.106;2024-01-30T06:22:35;6.10;;;5.50;;
17917;SDS011;9084;50.956;3.106;2024-01-30T06:25:03;5.82;;;5.13;;
17917;SDS011;9084;50.956;3.106;2024-01-30T06:27:32;5.50;;;5.00;;
17917;SDS011;9084;50.956;3.106;2024-01-30T06:29:58;5.20;;;4.80;;
17917;SDS011;9084;50.956;3.106;2024-01-30T06:32:23;7.28;;;5.10;;
17917;SDS011;9084;50.956;3.106;2024-01-30T06:34:54;5.93;;;5.32;;
17917;SDS011;9084;50.956;3.106;2024-01-30T06:37:22;7.18;;;5.22;;
17917;SDS011;9084;50.956;3.106;2024-01-30T06:39:50;7.35;;;5.22;;
17917;SDS011;9084;50.956;3.106;2024-01-30T06:42:17;6.40;;;5.47;;
17917;SDS011;9084;50.956;3.106;2024-01-30T06:44:42;5.57;;;4.65;;
17917;SDS011;9084;50.956;3.106;2024-01-30T06:47:10;5.40;;;4.90;;
17917;SDS011;9084;50.956;3.106;2024-01-30T06:49:38;5.68;;;5.07;;
17917;SDS011;9084;50.956;3.106;2024-01-30T06:52:07;4.70;;;4.30;;
17917;SDS011;9084;50.956;3.106;2024-01-30T06:54:35;4.95;;;4.47;;
17917;SDS011;9084;50.956;3.106;2024-01-30T06:57:01;6.05;;;4.70;;
17917;SDS011;9084;50.956;3.106;2024-01-30T06:59:27;7.53;;;5.30;;
17917;SDS011;9084;50.956;3.106;2024-01-30T07:01:53;5.60;;;5.10;;
17917;SDS011;9084;50.956;3.106;2024-01-30T07:04:19;8.80;;;5.18;;
17917;SDS011;9084;50.956;3.106;2024-01-30T07:06:47;5.90;;;5.30;;
17917;SDS011;9084;50.956;3.106;2024-01-30T07:09:12;6.07;;;4.43;;
17917;SDS011;9084;50.956;3.106;2024-01-30T07:11:38;5.95;;;5.22;;
17917;SDS011;9084;50.956;3.106;2024-01-30T07:14:04;6.32;;;4.97;;
17917;SDS011;9084;50.956;3.106;2024-01-30T07:16:32;6.53;;;4.68;;
17917;SDS011;9084;50.956;3.106;2024-01-30T07:19:00;8.98;;;5.05;;
17917;SDS011;9084;50.956;3.106;2024-01-30T07:21:30;5.68;;;5.13;;
17917;SDS011;9084;50.956;3.106;2024-01-30T07:23:56;5.28;;;4.80;;
17917;SDS011;9084;50.956;3.106;2024-01-30T07:26:22;6.28;;;4.65;;
17917;SDS011;9084;50.956;3.106;2024-01-30T07:28:47;7.95;;;5.43;;
17917;SDS011;9084;50.956;3.106;2024-01-30T07:31:13;5.97;;;4.72;;
17917;SDS011;9084;50.956;3.106;2024-01-30T07:33:41;6.00;;;4.88;;
17917;SDS011;9084;50.956;3.106;2024-01-30T07:36:07;6.10;;;4.85;;
17917;SDS011;9084;50.956;3.106;2024-01-30T07:38:32;8.50;;;5.57;;
17917;SDS011;9084;50.956;3.106;2024-01-30T07:41:00;7.30;;;4.70;;
17917;SDS011;9084;50.956;3.106;2024-01-30T07:43:28;7.40;;;5.68;;
17917;SDS011;9084;50.956;3.106;2024-01-30T07:45:56;5.10;;;4.53;;
17917;SDS011;9084;50.956;3.106;2024-01-30T07:48:22;5.03;;;3.70;;
17917;SDS011;9084;50.956;3.106;2024-01-30T07:50:47;6.43;;;3.80;;
17917;SDS011;9084;50.956;3.106;2024-01-30T07:53:15;5.03;;;3.47;;
17917;SDS011;9084;50.956;3.106;2024-01-30T07:55:46;5.38;;;3.45;;
17917;SDS011;9084;50.956;3.106;2024-01-30T07:58:17;5.32;;;3.10;;
17917;SDS011;9084;50.956;3.106;2024-01-30T08:00:45;4.30;;;2.92;;
17917;SDS011;9084;50.956;3.106;2024-01-30T08:03:10;5.05;;;3.25;;
17917;SDS011;9084;50.956;3.106;2024-01-30T08:05:36;3.97;;;2.40;;
17917;SDS011;9084;50.956;3.106;2024-01-30T08:08:04;3.00;;;2.30;;
17917;SDS011;9084;50.956;3.106;2024-01-30T08:10:30;3.33;;;2.33;;
17917;SDS011;9084;50.956;3.106;2024-01-30T08:12:58;6.20;;;2.90;;
17917;SDS011;9084;50.956;3.106;2024-01-30T08:15:24;3.85;;;1.70;;
17917;SDS011;9084;50.956;3.106;2024-01-30T08:17:49;3.47;;;2.17;;
17917;SDS011;9084;50.956;3.106;2024-01-30T08:20:20;5.95;;;2.50;;
17917;SDS011;9084;50.956;3.106;2024-01-30T08:22:46;7.60;;;2.70;;
17917;SDS011;9084;50.956;3.106;2024-01-30T08:25:12;4.30;;;2.35;;
17917;SDS011;9084;50.956;3.106;2024-01-30T08:27:37;4.63;;;1.23;;
17917;SDS011;9084;50.956;3.106;2024-01-30T08:30:04;3.35;;;1.17;;
17917;SDS011;9084;50.956;3.106;2024-01-30T08:32:35;3.50;;;1.30;;
17917;SDS011;9084;50.956;3.106;2024-01-30T08:35:01;2.92;;;1.35;;
17917;SDS011;9084;50.956;3.106;2024-01-30T08:37:29;3.38;;;1.20;;
17917;SDS011;9084;50.956;3.106;2024-01-30T08:39:55;4.97;;;1.67;;
17917;SDS011;9084;50.956;3.106;2024-01-30T08:42:23;5.72;;;1.00;;
17917;SDS011;9084;50.956;3.106;2024-01-30T08:44:49;2.90;;;0.98;;
17917;SDS011;9084;50.956;3.106;2024-01-30T08:47:16;3.15;;;1.80;;
17917;SDS011;9084;50.956;3.106;2024-01-30T08:49:42;2.33;;;1.25;;
17917;SDS011;9084;50.956;3.106;2024-01-30T08:52:09;4.90;;;1.23;;
17917;SDS011;9084;50.956;3.106;2024-01-30T08:54:36;2.53;;;0.73;;
17917;SDS011;9084;50.956;3.106;2024-01-30T08:57:04;2.97;;;1.02;;
17917;SDS011;9084;50.956;3.106;2024-01-30T08:59:29;1.48;;;0.60;;
17917;SDS011;9084;50.956;3.106;2024-01-30T09:01:55;3.10;;;0.55;;
17917;SDS011;9084;50.956;3.106;2024-01-30T09:04:24;2.45;;;0.60;;
17917;SDS011;9084;50.956;3.106;2024-01-30T09:06:49;2.45;;;0.70;;
17917;SDS011;9084;50.956;3.106;2024-01-30T09:09:15;1.75;;;0.45;;
17917;SDS011;9084;50.956;3.106;2024-01-30T09:11:42;3.08;;;0.65;;
17917;SDS011;9084;50.956;3.106;2024-01-30T09:14:08;1.33;;;0.30;;
17917;SDS011;9084;50.956;3.106;2024-01-30T09:16:34;2.22;;;0.43;;
17917;SDS011;9084;50.956;3.106;2024-01-30T09:18:59;1.25;;;0.57;;
17917;SDS011;9084;50.956;3.106;2024-01-30T09:21:27;1.95;;;0.43;;
17917;SDS011;9084;50.956;3.106;2024-01-30T09:23:54;1.40;;;0.40;;
17917;SDS011;9084;50.956;3.106;2024-01-30T09:26:28;2.92;;;0.50;;
17917;SDS011;9084;50.956;3.106;2024-01-30T09:28:56;0.85;;;0.30;;
17917;SDS011;9084;50.956;3.106;2024-01-30T09:31:22;1.27;;;0.57;;
17917;SDS011;9084;50.956;3.106;2024-01-30T09:33:50;1.23;;;0.30;;
17917;SDS011;9084;50.956;3.106;2024-01-30T09:36:19;1.48;;;0.40;;
17917;SDS011;9084;50.956;3.106;2024-01-30T09:38:45;2.95;;;0.73;;
17917;SDS011;9084;50.956;3.106;2024-01-30T09:41:13;1.38;;;0.52;;
17917;SDS011;9084;50.956;3.106;2024-01-30T09:43:40;1.75;;;0.50;;
17917;SDS011;9084;50.956;3.106;2024-01-30T09:46:11;0.90;;;0.50;;
17917;SDS011;9084;50.956;3.106;2024-01-30T09:48:41;1.45;;;0.55;;
17917;SDS011;9084;50.956;3.106;2024-01-30T09:51:09;2.03;;;0.57;;
17917;SDS011;9084;50.956;3.106;2024-01-30T09:53:38;3.28;;;0.75;;
17917;SDS011;9084;50.956;3.106;2024-01-30T09:56:08;2.35;;;0.70;;
17917;SDS011;9084;50.956;3.106;2024-01-30T09:58:33;1.63;;;0.65;;
17917;SDS011;9084;50.956;3.106;2024-01-30T10:01:02;1.63;;;0.63;;
17917;SDS011;9084;50.956;3.106;2024-01-30T10:03:29;2.90;;;1.00;;
17917;SDS011;9084;50.956;3.106;2024-01-30T10:05:55;0.90;;;0.50;;
17917;SDS011;9084;50.956;3.106;2024-01-30T10:08:25;2.70;;;1.25;;
17917;SDS011;9084;50.956;3.106;2024-01-30T10:10:51;1.52;;;0.70;;
17917;SDS011;9084;50.956;3.106;2024-01-30T10:13:17;0.68;;;0.40;;
17917;SDS011;9084;50.956;3.106;2024-01-30T10:15:47;1.63;;;0.47;;
17917;SDS011;9084;50.956;3.106;2024-01-30T10:18:16;3.13;;;0.75;;
17917;SDS011;9084;50.956;3.106;2024-01-30T10:20:42;1.50;;;0.73;;
17917;SDS011;9084;50.956;3.106;2024-01-30T10:23:07;3.03;;;0.82;;
17917;SDS011;9084;50.956;3.106;2024-01-30T10:25:36;2.75;;;0.88;;
17917;SDS011;9084;50.956;3.106;2024-01-30T10:28:03;3.30;;;1.33;;
17917;SDS011;9084;50.956;3.106;2024-01-30T10:30:31;2.75;;;0.60;;
17917;SDS011;9084;50.956;3.106;2024-01-30T10:32:59;4.10;;;0.80;;
17917;SDS011;9084;50.956;3.106;2024-01-30T10:35:25;2.60;;;0.98;;
17917;SDS011;9084;50.956;3.106;2024-01-30T10:37:53;6.85;;;0.98;;
17917;SDS011;9084;50.956;3.106;2024-01-30T10:40:23;2.72;;;1.20;;
17917;SDS011;9084;50.956;3.106;2024-01-30T10:42:53;3.72;;;0.82;;
17917;SDS011;9084;50.956;3.106;2024-01-30T10:45:20;3.67;;;0.90;;
17917;SDS011;9084;50.956;3.106;2024-01-30T10:47:55;2.95;;;0.85;;
17917;SDS011;9084;50.956;3.106;2024-01-30T10:50:24;3.13;;;0.90;;
17917;SDS011;9084;50.956;3.106;2024-01-30T10:52:50;3.38;;;0.73;;
17917;SDS011;9084;50.956;3.106;2024-01-30T10:55:19;2.35;;;0.70;;
17917;SDS011;9084;50.956;3.106;2024-01-30T10:57:47;4.53;;;0.98;;
17917;SDS011;9084;50.956;3.106;2024-01-30T11:00:13;3.95;;;1.35;;
17917;SDS011;9084;50.956;3.106;2024-01-30T11:02:42;4.20;;;0.90;;
17917;SDS011;9084;50.956;3.106;2024-01-30T11:05:09;2.10;;;0.52;;
17917;SDS011;9084;50.956;3.106;2024-01-30T11:07:41;1.52;;;0.40;;
17917;SDS011;9084;50.956;3.106;2024-01-30T11:10:08;2.00;;;0.68;;
17917;SDS011;9084;50.956;3.106;2024-01-30T11:12:38;2.25;;;0.52;;
17917;SDS011;9084;50.956;3.106;2024-01-30T11:20:22;1.92;;;0.70;;
17917;SDS011;9084;50.956;3.106;2024-01-30T11:22:53;1.27;;;0.47;;
17917;SDS011;9084;50.956;3.106;2024-01-30T11:25:21;3.90;;;0.75;;
17917;SDS011;9084;50.956;3.106;2024-01-30T11:27:49;1.65;;;0.40;;
17917;SDS011;9084;50.956;3.106;2024-01-30T11:33:07;2.33;;;0.57;;
17917;SDS011;9084;50.956;3.106;2024-01-30T11:35:40;4.57;;;0.50;;
17917;SDS011;9084;50.956;3.106;2024-01-30T11:38:07;1.10;;;0.38;;
17917;SDS011;9084;50.956;3.106;2024-01-30T11:40:36;2.90;;;0.85;;
17917;SDS011;9084;50.956;3.106;2024-01-30T11:43:06;1.85;;;0.40;;
17917;SDS011;9084;50.956;3.106;2024-01-30T11:45:33;1.15;;;0.52;;
17917;SDS011;9084;50.956;3.106;2024-01-30T11:48:02;1.08;;;0.50;;
17917;SDS011;9084;50.956;3.106;2024-01-30T11:50:29;2.40;;;0.68;;
17917;SDS011;9084;50.956;3.106;2024-01-30T11:52:55;1.25;;;0.40;;
17917;SDS011;9084;50.956;3.106;2024-01-30T11:55:24;3.25;;;0.65;;
17917;SDS011;9084;50.956;3.106;2024-01-30T11:57:50;2.33;;;0.70;;
17917;SDS011;9084;50.956;3.106;2024-01-30T12:00:19;1.42;;;0.40;;
17917;SDS011;9084;50.956;3.106;2024-01-30T12:02:49;1.00;;;0.50;;
17917;SDS011;9084;50.956;3.106;2024-01-30T12:05:15;2.03;;;0.63;;
17917;SDS011;9084;50.956;3.106;2024-01-30T12:07:43;3.10;;;0.68;;
17917;SDS011;9084;50.956;3.106;2024-01-30T12:10:14;0.90;;;0.40;;
17917;SDS011;9084;50.956;3.106;2024-01-30T12:12:47;2.33;;;0.75;;
17917;SDS011;9084;50.956;3.106;2024-01-30T12:15:19;1.98;;;0.47;;
17917;SDS011;9084;50.956;3.106;2024-01-30T12:17:47;1.90;;;0.30;;
17917;SDS011;9084;50.956;3.106;2024-01-30T12:20:17;3.22;;;0.52;;
17917;SDS011;9084;50.956;3.106;2024-01-30T12:22:44;4.70;;;0.70;;
17917;SDS011;9084;50.956;3.106;2024-01-30T12:25:12;3.75;;;0.65;;
17917;SDS011;9084;50.956;3.106;2024-01-30T12:27:47;1.55;;;0.55;;
17917;SDS011;9084;50.956;3.106;2024-01-30T12:30:19;1.45;;;0.60;;
17917;SDS011;9084;50.956;3.106;2024-01-30T12:32:46;3.00;;;0.85;;
17917;SDS011;9084;50.956;3.106;2024-01-30T12:35:16;1.80;;;0.73;;
17917;SDS011;9084;50.956;3.106;2024-01-30T12:37:42;1.05;;;0.45;;
17917;SDS011;9084;50.956;3.106;2024-01-30T12:40:09;1.52;;;0.60;;
17917;SDS011;9084;50.956;3.106;2024-01-30T12:42:41;1.63;;;0.60;;
17917;SDS011;9084;50.956;3.106;2024-01-30T12:45:16;2.78;;;1.05;;
17917;SDS011;9084;50.956;3.106;2024-01-30T12:47:46;2.30;;;1.48;;
17917;SDS011;9084;50.956;3.106;2024-01-30T12:50:14;4.20;;;0.98;;
17917;SDS011;9084;50.956;3.106;2024-01-30T12:52:45;2.25;;;0.65;;
17917;SDS011;9084;50.956;3.106;2024-01-30T12:55:11;3.72;;;1.20;;
17917;SDS011;9084;50.956;3.106;2024-01-30T12:57:37;3.13;;;0.68;;
17917;SDS011;9084;50.956;3.106;2024-01-30T13:00:04;1.58;;;0.60;;
17917;SDS011;9084;50.956;3.106;2024-01-30T13:02:35;2.90;;;0.77;;
17917;SDS011;9084;50.956;3.106;2024-01-30T13:05:05;2.28;;;0.70;;
17917;SDS011;9084;50.956;3.106;2024-01-30T13:07:31;3.25;;;1.00;;
17917;SDS011;9084;50.956;3.106;2024-01-30T13:09:56;3.05;;;0.98;;
17917;SDS011;9084;50.956;3.106;2024-01-30T13:12:27;4.88;;;1.15;;
17917;SDS011;9084;50.956;3.106;2024-01-30T13:14:56;3.55;;;0.77;;
17917;SDS011;9084;50.956;3.106;2024-01-30T13:17:21;3.08;;;0.98;;
17917;SDS011;9084;50.956;3.106;2024-01-30T13:19:47;2.75;;;0.80;;
17917;SDS011;9084;50.956;3.106;2024-01-30T13:22:14;4.43;;;0.95;;
17917;SDS011;9084;50.956;3.106;2024-01-30T13:24:42;3.95;;;1.13;;
17917;SDS011;9084;50.956;3.106;2024-01-30T13:27:10;3.00;;;0.80;;
17917;SDS011;9084;50.956;3.106;2024-01-30T13:29:38;2.97;;;1.00;;
17917;SDS011;9084;50.956;3.106;2024-01-30T13:32:04;5.57;;;1.10;;
17917;SDS011;9084;50.956;3.106;2024-01-30T13:34:29;2.67;;;0.80;;
17917;SDS011;9084;50.956;3.106;2024-01-30T13:36:55;2.08;;;1.00;;
17917;SDS011;9084;50.956;3.106;2024-01-30T13:39:21;1.75;;;0.90;;
17917;SDS011;9084;50.956;3.106;2024-01-30T13:41:48;3.15;;;0.80;;
17917;SDS011;9084;50.956;3.106;2024-01-30T13:44:17;3.28;;;1.08;;
17917;SDS011;9084;50.956;3.106;2024-01-30T13:46:43;3.80;;;1.25;;
17917;SDS011;9084;50.956;3.106;2024-01-30T13:49:08;3.58;;;1.20;;
17917;SDS011;9084;50.956;3.106;2024-01-30T13:51:34;2.05;;;0.82;;
17917;SDS011;9084;50.956;3.106;2024-01-30T13:54:00;2.78;;;1.25;;
17917;SDS011;9084;50.956;3.106;2024-01-30T13:56:28;2.25;;;1.77;;
17917;SDS011;9084;50.956;3.106;2024-01-30T13:58:55;4.47;;;1.83;;
17917;SDS011;9084;50.956;3.106;2024-01-30T14:01:21;3.35;;;1.83;;
17917;SDS011;9084;50.956;3.106;2024-01-30T14:03:50;4.85;;;1.90;;
17917;SDS011;9084;50.956;3.106;2024-01-30T14:06:15;3.78;;;1.58;;
17917;SDS011;9084;50.956;3.106;2024-01-30T14:08:41;3.45;;;1.42;;
17917;SDS011;9084;50.956;3.106;2024-01-30T14:11:09;3.35;;;2.10;;
17917;SDS011;9084;50.956;3.106;2024-01-30T14:13:35;3.58;;;1.58;;
17917;SDS011;9084;50.956;3.106;2024-01-30T14:16:00;2.55;;;1.67;;
17917;SDS011;9084;50.956;3.106;2024-01-30T14:18:26;4.05;;;1.70;;
17917;SDS011;9084;50.956;3.106;2024-01-30T14:20:52;2.80;;;1.75;;
17917;SDS011;9084;50.956;3.106;2024-01-30T14:23:18;3.85;;;1.67;;
17917;SDS011;9084;50.956;3.106;2024-01-30T14:25:49;2.03;;;1.67;;
17917;SDS011;9084;50.956;3.106;2024-01-30T14:28:17;2.97;;;1.52;;
17917;SDS011;9084;50.956;3.106;2024-01-30T14:30:43;5.25;;;1.65;;
17917;SDS011;9084;50.956;3.106;2024-01-30T14:33:08;2.83;;;2.03;;
17917;SDS011;9084;50.956;3.106;2024-01-30T14:35:34;3.28;;;1.67;;
17917;SDS011;9084;50.956;3.106;2024-01-30T14:38:00;4.10;;;1.80;;
17917;SDS011;9084;50.956;3.106;2024-01-30T14:40:26;1.83;;;1.30;;
17917;SDS011;9084;50.956;3.106;2024-01-30T14:42:52;3.35;;;1.60;;
17917;SDS011;9084;50.956;3.106;2024-01-30T14:45:20;2.63;;;1.20;;
17917;SDS011;9084;50.956;3.106;2024-01-30T14:47:48;3.22;;;1.58;;
17917;SDS011;9084;50.956;3.106;2024-01-30T14:50:17;1.65;;;1.27;;
17917;SDS011;9084;50.956;3.106;2024-01-30T14:52:43;2.97;;;1.42;;
17917;SDS011;9084;50.956;3.106;2024-01-30T14:55:09;2.78;;;1.40;;
17917;SDS011;9084;50.956;3.106;2024-01-30T14:57:37;3.03;;;1.20;;
17917;SDS011;9084;50.956;3.106;2024-01-30T15:00:09;4.38;;;1.42;;
17917;SDS011;9084;50.956;3.106;2024-01-30T15:02:37;2.10;;;1.17;;
17917;SDS011;9084;50.956;3.106;2024-01-30T15:05:08;5.03;;;1.40;;
17917;SDS011;9084;50.956;3.106;2024-01-30T15:07:35;4.47;;;1.60;;